sensor_id;sensor_type;location;lat;lon;timestamp;P1;durP1;ratioP1;P2;durP2;ratioP2
74223;SDS011;62585;49.706;18.216;2023-09-08T00:02:03;11.75;;;8.05;;
74223;SDS011;62585;49.706;18.216;2023-09-08T00:04:29;12.45;;;8.32;;
74223;SDS011;62585;49.706;18.216;2023-09-08T00:06:54;12.75;;;7.68;;
74223;SDS011;62585;49.706;18.216;2023-09-08T00:09:20;14.65;;;7.97;;
74223;SDS011;62585;49.706;18.216;2023-09-08T00:11:46;13.82;;;8.52;;
74223;SDS011;62585;49.706;18.216;2023-09-08T00:14:12;15.98;;;8.40;;
74223;SDS011;62585;49.706;18.216;2023-09-08T00:16:37;15.20;;;8.27;;
74223;SDS011;62585;49.706;18.216;2023-09-08T00:19:04;16.23;;;7.90;;
74223;SDS011;62585;49.706;18.216;2023-09-08T00:21:30;13.35;;;8.13;;
74223;SDS011;62585;49.706;18.216;2023-09-08T00:23:56;13.50;;;8.55;;
74223;SDS011;62585;49.706;18.216;2023-09-08T00:26:21;11.32;;;7.93;;
74223;SDS011;62585;49.706;18.216;2023-09-08T00:28:48;12.70;;;8.05;;
74223;SDS011;62585;49.706;18.216;2023-09-08T00:31:13;12.15;;;7.20;;
74223;SDS011;62585;49.706;18.216;2023-09-08T00:33:39;14.82;;;8.15;;
74223;SDS011;62585;49.706;18.216;2023-09-08T00:36:06;12.75;;;7.22;;
74223;SDS011;62585;49.706;18.216;2023-09-08T00:38:32;11.38;;;7.68;;
74223;SDS011;62585;49.706;18.216;2023-09-08T00:40:57;14.10;;;7.28;;
74223;SDS011;62585;49.706;18.216;2023-09-08T00:43:25;11.70;;;7.15;;
74223;SDS011;62585;49.706;18.216;2023-09-08T00:45:51;12.80;;;7.18;;
74223;SDS011;62585;49.706;18.216;2023-09-08T00:48:17;14.73;;;7.55;;
74223;SDS011;62585;49.706;18.216;2023-09-08T00:50:43;11.77;;;7.05;;
74223;SDS011;62585;49.706;18.216;2023-09-08T00:53:10;10.70;;;7.10;;
74223;SDS011;62585;49.706;18.216;2023-09-08T00:55:36;11.50;;;7.47;;
74223;SDS011;62585;49.706;18.216;2023-09-08T00:58:01;12.60;;;8.20;;
74223;SDS011;62585;49.706;18.216;2023-09-08T01:00:28;11.30;;;8.02;;
74223;SDS011;62585;49.706;18.216;2023-09-08T01:02:54;12.43;;;8.05;;
74223;SDS011;62585;49.706;18.216;2023-09-08T01:05:19;12.13;;;7.85;;
74223;SDS011;62585;49.706;18.216;2023-09-08T01:07:46;12.13;;;7.30;;
74223;SDS011;62585;49.706;18.216;2023-09-08T01:10:13;13.02;;;7.60;;
74223;SDS011;62585;49.706;18.216;2023-09-08T01:12:40;13.80;;;7.15;;
74223;SDS011;62585;49.706;18.216;2023-09-08T01:15:05;10.88;;;6.43;;
74223;SDS011;62585;49.706;18.216;2023-09-08T01:17:32;11.70;;;7.38;;
74223;SDS011;62585;49.706;18.216;2023-09-08T01:19:59;10.25;;;6.70;;
74223;SDS011;62585;49.706;18.216;2023-09-08T01:25:12;10.93;;;6.60;;
74223;SDS011;62585;49.706;18.216;2023-09-08T01:27:55;11.20;;;6.60;;
74223;SDS011;62585;49.706;18.216;2023-09-08T01:30:24;9.50;;;6.45;;
74223;SDS011;62585;49.706;18.216;2023-09-08T01:32:52;10.02;;;7.43;;
74223;SDS011;62585;49.706;18.216;2023-09-08T01:35:19;9.73;;;6.03;;
74223;SDS011;62585;49.706;18.216;2023-09-08T01:37:45;11.93;;;7.28;;
74223;SDS011;62585;49.706;18.216;2023-09-08T01:40:12;11.38;;;6.88;;
74223;SDS011;62585;49.706;18.216;2023-09-08T01:42:39;11.00;;;6.78;;
74223;SDS011;62585;49.706;18.216;2023-09-08T01:45:05;9.27;;;6.40;;
74223;SDS011;62585;49.706;18.216;2023-09-08T01:47:32;11.07;;;7.43;;
74223;SDS011;62585;49.706;18.216;2023-09-08T01:49:58;11.45;;;6.15;;
74223;SDS011;62585;49.706;18.216;2023-09-08T01:52:24;13.10;;;7.32;;
74223;SDS011;62585;49.706;18.216;2023-09-08T01:54:50;11.68;;;6.80;;
74223;SDS011;62585;49.706;18.216;2023-09-08T01:57:17;11.07;;;6.32;;
74223;SDS011;62585;49.706;18.216;2023-09-08T01:59:42;8.73;;;5.80;;
74223;SDS011;62585;49.706;18.216;2023-09-08T02:02:10;10.18;;;6.43;;
74223;SDS011;62585;49.706;18.216;2023-09-08T02:04:36;10.43;;;6.68;;
74223;SDS011;62585;49.706;18.216;2023-09-08T02:07:02;11.80;;;7.38;;
74223;SDS011;62585;49.706;18.216;2023-09-08T02:09:33;10.68;;;6.40;;
74223;SDS011;62585;49.706;18.216;2023-09-08T02:12:00;10.60;;;7.20;;
74223;SDS011;62585;49.706;18.216;2023-09-08T02:14:26;10.15;;;6.65;;
74223;SDS011;62585;49.706;18.216;2023-09-08T02:16:53;8.63;;;6.07;;
74223;SDS011;62585;49.706;18.216;2023-09-08T02:19:19;8.60;;;6.10;;
74223;SDS011;62585;49.706;18.216;2023-09-08T02:21:46;10.98;;;6.60;;
74223;SDS011;62585;49.706;18.216;2023-09-08T02:24:11;9.98;;;6.70;;
74223;SDS011;62585;49.706;18.216;2023-09-08T02:26:38;8.98;;;6.30;;
74223;SDS011;62585;49.706;18.216;2023-09-08T02:29:04;10.27;;;6.75;;
74223;SDS011;62585;49.706;18.216;2023-09-08T02:31:30;9.50;;;5.97;;
74223;SDS011;62585;49.706;18.216;2023-09-08T02:33:56;12.15;;;6.78;;
74223;SDS011;62585;49.706;18.216;2023-09-08T02:36:22;11.20;;;6.15;;
74223;SDS011;62585;49.706;18.216;2023-09-08T02:38:51;9.93;;;6.32;;
74223;SDS011;62585;49.706;18.216;2023-09-08T02:41:20;10.68;;;6.47;;
74223;SDS011;62585;49.706;18.216;2023-09-08T02:43:47;11.45;;;6.47;;
74223;SDS011;62585;49.706;18.216;2023-09-08T02:46:13;9.48;;;6.13;;
74223;SDS011;62585;49.706;18.216;2023-09-08T02:48:39;8.85;;;6.45;;
74223;SDS011;62585;49.706;18.216;2023-09-08T02:51:06;9.25;;;6.40;;
74223;SDS011;62585;49.706;18.216;2023-09-08T02:53:31;10.88;;;6.85;;
74223;SDS011;62585;49.706;18.216;2023-09-08T02:55:58;11.82;;;6.90;;
74223;SDS011;62585;49.706;18.216;2023-09-08T02:58:24;9.93;;;6.22;;
74223;SDS011;62585;49.706;18.216;2023-09-08T03:00:51;10.27;;;5.95;;
74223;SDS011;62585;49.706;18.216;2023-09-08T03:03:17;10.27;;;6.28;;
74223;SDS011;62585;49.706;18.216;2023-09-08T03:05:44;9.52;;;5.85;;
74223;SDS011;62585;49.706;18.216;2023-09-08T03:08:10;9.77;;;6.70;;
74223;SDS011;62585;49.706;18.216;2023-09-08T03:10:36;7.57;;;5.68;;
74223;SDS011;62585;49.706;18.216;2023-09-08T03:13:02;8.80;;;5.90;;
74223;SDS011;62585;49.706;18.216;2023-09-08T03:17:55;8.50;;;5.72;;
74223;SDS011;62585;49.706;18.216;2023-09-08T03:20:22;8.88;;;6.30;;
74223;SDS011;62585;49.706;18.216;2023-09-08T03:22:48;8.63;;;6.13;;
74223;SDS011;62585;49.706;18.216;2023-09-08T03:25:14;9.32;;;6.15;;
74223;SDS011;62585;49.706;18.216;2023-09-08T03:27:40;9.75;;;6.32;;
74223;SDS011;62585;49.706;18.216;2023-09-08T03:30:06;11.93;;;6.88;;
74223;SDS011;62585;49.706;18.216;2023-09-08T03:32:32;9.75;;;6.32;;
74223;SDS011;62585;49.706;18.216;2023-09-08T03:34:59;9.35;;;6.78;;
74223;SDS011;62585;49.706;18.216;2023-09-08T03:37:24;12.38;;;7.18;;
74223;SDS011;62585;49.706;18.216;2023-09-08T03:39:52;8.85;;;6.80;;
74223;SDS011;62585;49.706;18.216;2023-09-08T03:42:18;9.02;;;6.75;;
74223;SDS011;62585;49.706;18.216;2023-09-08T03:44:44;10.27;;;6.10;;
74223;SDS011;62585;49.706;18.216;2023-09-08T03:47:10;10.13;;;6.45;;
74223;SDS011;62585;49.706;18.216;2023-09-08T03:49:36;10.82;;;7.68;;
74223;SDS011;62585;49.706;18.216;2023-09-08T03:52:01;11.43;;;6.65;;
74223;SDS011;62585;49.706;18.216;2023-09-08T03:54:28;11.02;;;7.45;;
74223;SDS011;62585;49.706;18.216;2023-09-08T03:56:53;10.85;;;7.10;;
74223;SDS011;62585;49.706;18.216;2023-09-08T03:59:19;11.43;;;7.80;;
74223;SDS011;62585;49.706;18.216;2023-09-08T04:01:45;13.68;;;7.40;;
74223;SDS011;62585;49.706;18.216;2023-09-08T04:04:11;11.32;;;7.43;;
74223;SDS011;62585;49.706;18.216;2023-09-08T04:06:37;10.82;;;6.70;;
74223;SDS011;62585;49.706;18.216;2023-09-08T04:09:02;10.75;;;7.15;;
74223;SDS011;62585;49.706;18.216;2023-09-08T04:11:28;9.13;;;6.50;;
74223;SDS011;62585;49.706;18.216;2023-09-08T04:13:54;13.40;;;7.10;;
74223;SDS011;62585;49.706;18.216;2023-09-08T04:16:20;10.93;;;7.50;;
74223;SDS011;62585;49.706;18.216;2023-09-08T04:18:46;9.93;;;6.10;;
74223;SDS011;62585;49.706;18.216;2023-09-08T04:21:12;12.18;;;7.20;;
74223;SDS011;62585;49.706;18.216;2023-09-08T04:23:39;10.30;;;6.85;;
74223;SDS011;62585;49.706;18.216;2023-09-08T04:26:06;10.88;;;7.43;;
74223;SDS011;62585;49.706;18.216;2023-09-08T04:28:32;10.32;;;6.97;;
74223;SDS011;62585;49.706;18.216;2023-09-08T04:30:58;9.15;;;6.38;;
74223;SDS011;62585;49.706;18.216;2023-09-08T04:33:25;10.05;;;6.68;;
74223;SDS011;62585;49.706;18.216;2023-09-08T04:35:51;10.23;;;6.97;;
74223;SDS011;62585;49.706;18.216;2023-09-08T04:38:17;11.25;;;6.10;;
74223;SDS011;62585;49.706;18.216;2023-09-08T04:40:44;9.05;;;6.03;;
74223;SDS011;62585;49.706;18.216;2023-09-08T04:43:11;10.55;;;6.45;;
74223;SDS011;62585;49.706;18.216;2023-09-08T04:45:37;9.63;;;6.72;;
74223;SDS011;62585;49.706;18.216;2023-09-08T04:48:04;12.68;;;6.20;;
74223;SDS011;62585;49.706;18.216;2023-09-08T04:50:30;11.48;;;7.00;;
74223;SDS011;62585;49.706;18.216;2023-09-08T04:52:56;8.30;;;6.40;;
74223;SDS011;62585;49.706;18.216;2023-09-08T04:55:22;12.35;;;6.10;;
74223;SDS011;62585;49.706;18.216;2023-09-08T04:57:48;10.70;;;6.47;;
74223;SDS011;62585;49.706;18.216;2023-09-08T05:00:14;9.55;;;5.30;;
74223;SDS011;62585;49.706;18.216;2023-09-08T05:02:40;10.25;;;5.90;;
74223;SDS011;62585;49.706;18.216;2023-09-08T05:05:06;9.35;;;5.47;;
74223;SDS011;62585;49.706;18.216;2023-09-08T05:07:32;8.30;;;6.15;;
74223;SDS011;62585;49.706;18.216;2023-09-08T05:09:58;10.13;;;5.75;;
74223;SDS011;62585;49.706;18.216;2023-09-08T05:12:24;11.48;;;6.93;;
74223;SDS011;62585;49.706;18.216;2023-09-08T05:14:50;10.10;;;6.82;;
74223;SDS011;62585;49.706;18.216;2023-09-08T05:17:21;9.98;;;6.57;;
74223;SDS011;62585;49.706;18.216;2023-09-08T05:22:14;13.82;;;6.90;;
74223;SDS011;62585;49.706;18.216;2023-09-08T05:24:39;11.15;;;7.10;;
74223;SDS011;62585;49.706;18.216;2023-09-08T05:27:05;12.40;;;6.50;;
74223;SDS011;62585;49.706;18.216;2023-09-08T05:29:31;10.07;;;6.35;;
74223;SDS011;62585;49.706;18.216;2023-09-08T05:31:57;13.57;;;7.22;;
74223;SDS011;62585;49.706;18.216;2023-09-08T05:34:23;13.00;;;8.10;;
74223;SDS011;62585;49.706;18.216;2023-09-08T05:36:54;11.77;;;7.85;;
74223;SDS011;62585;49.706;18.216;2023-09-08T05:39:34;17.10;;;8.82;;
74223;SDS011;62585;49.706;18.216;2023-09-08T05:42:10;12.55;;;8.27;;
74223;SDS011;62585;49.706;18.216;2023-09-08T05:44:36;14.80;;;8.88;;
74223;SDS011;62585;49.706;18.216;2023-09-08T05:47:02;13.48;;;8.00;;
74223;SDS011;62585;49.706;18.216;2023-09-08T05:49:27;12.88;;;8.02;;
74223;SDS011;62585;49.706;18.216;2023-09-08T05:51:53;11.15;;;8.32;;
74223;SDS011;62585;49.706;18.216;2023-09-08T05:54:19;12.75;;;8.02;;
74223;SDS011;62585;49.706;18.216;2023-09-08T05:56:45;15.18;;;8.80;;
74223;SDS011;62585;49.706;18.216;2023-09-08T05:59:11;14.27;;;8.25;;
74223;SDS011;62585;49.706;18.216;2023-09-08T06:01:37;11.60;;;7.57;;
74223;SDS011;62585;49.706;18.216;2023-09-08T06:04:03;11.90;;;8.02;;
74223;SDS011;62585;49.706;18.216;2023-09-08T06:06:29;11.55;;;8.38;;
74223;SDS011;62585;49.706;18.216;2023-09-08T06:08:55;14.85;;;9.20;;
74223;SDS011;62585;49.706;18.216;2023-09-08T06:11:21;14.63;;;8.32;;
74223;SDS011;62585;49.706;18.216;2023-09-08T06:13:46;17.23;;;8.63;;
74223;SDS011;62585;49.706;18.216;2023-09-08T06:16:15;15.55;;;8.60;;
74223;SDS011;62585;49.706;18.216;2023-09-08T06:18:40;15.23;;;8.93;;
74223;SDS011;62585;49.706;18.216;2023-09-08T06:21:07;13.75;;;8.75;;
74223;SDS011;62585;49.706;18.216;2023-09-08T06:23:33;13.93;;;9.35;;
74223;SDS011;62585;49.706;18.216;2023-09-08T06:25:59;15.98;;;10.35;;
74223;SDS011;62585;49.706;18.216;2023-09-08T06:28:28;14.13;;;9.07;;
74223;SDS011;62585;49.706;18.216;2023-09-08T06:30:54;16.00;;;8.55;;
74223;SDS011;62585;49.706;18.216;2023-09-08T06:33:20;17.90;;;8.65;;
74223;SDS011;62585;49.706;18.216;2023-09-08T06:35:47;14.45;;;8.60;;
74223;SDS011;62585;49.706;18.216;2023-09-08T06:38:13;13.38;;;8.98;;
74223;SDS011;62585;49.706;18.216;2023-09-08T06:40:40;14.55;;;9.27;;
74223;SDS011;62585;49.706;18.216;2023-09-08T06:43:05;13.10;;;8.57;;
74223;SDS011;62585;49.706;18.216;2023-09-08T06:45:31;13.30;;;9.02;;
74223;SDS011;62585;49.706;18.216;2023-09-08T06:47:57;14.80;;;10.25;;
74223;SDS011;62585;49.706;18.216;2023-09-08T06:50:25;17.15;;;10.32;;
74223;SDS011;62585;49.706;18.216;2023-09-08T06:52:51;15.63;;;9.95;;
74223;SDS011;62585;49.706;18.216;2023-09-08T06:55:18;15.00;;;10.18;;
74223;SDS011;62585;49.706;18.216;2023-09-08T06:57:45;15.13;;;10.23;;
74223;SDS011;62585;49.706;18.216;2023-09-08T07:00:12;17.30;;;10.65;;
74223;SDS011;62585;49.706;18.216;2023-09-08T07:05:04;17.17;;;9.57;;
74223;SDS011;62585;49.706;18.216;2023-09-08T07:07:36;15.73;;;9.50;;
74223;SDS011;62585;49.706;18.216;2023-09-08T07:10:03;16.10;;;9.02;;
74223;SDS011;62585;49.706;18.216;2023-09-08T07:12:29;15.98;;;9.10;;
74223;SDS011;62585;49.706;18.216;2023-09-08T07:14:55;17.45;;;9.70;;
74223;SDS011;62585;49.706;18.216;2023-09-08T07:17:22;16.30;;;8.93;;
74223;SDS011;62585;49.706;18.216;2023-09-08T07:19:51;15.23;;;10.75;;
74223;SDS011;62585;49.706;18.216;2023-09-08T07:22:17;15.40;;;9.27;;
74223;SDS011;62585;49.706;18.216;2023-09-08T07:24:43;17.20;;;9.55;;
74223;SDS011;62585;49.706;18.216;2023-09-08T07:27:10;12.30;;;9.20;;
74223;SDS011;62585;49.706;18.216;2023-09-08T07:29:39;15.55;;;10.52;;
74223;SDS011;62585;49.706;18.216;2023-09-08T07:32:06;17.67;;;10.52;;
74223;SDS011;62585;49.706;18.216;2023-09-08T07:34:32;12.73;;;8.73;;
74223;SDS011;62585;49.706;18.216;2023-09-08T07:36:59;13.45;;;9.32;;
74223;SDS011;62585;49.706;18.216;2023-09-08T07:39:26;11.70;;;8.73;;
74223;SDS011;62585;49.706;18.216;2023-09-08T07:41:52;14.40;;;8.63;;
74223;SDS011;62585;49.706;18.216;2023-09-08T07:44:19;15.60;;;8.88;;
74223;SDS011;62585;49.706;18.216;2023-09-08T07:46:44;18.52;;;9.15;;
74223;SDS011;62585;49.706;18.216;2023-09-08T07:51:37;12.73;;;8.40;;
74223;SDS011;62585;49.706;18.216;2023-09-08T07:54:04;11.82;;;8.75;;
74223;SDS011;62585;49.706;18.216;2023-09-08T07:56:30;14.15;;;8.63;;
74223;SDS011;62585;49.706;18.216;2023-09-08T07:58:56;14.48;;;8.80;;
74223;SDS011;62585;49.706;18.216;2023-09-08T08:01:22;12.98;;;7.80;;
74223;SDS011;62585;49.706;18.216;2023-09-08T08:03:48;14.63;;;8.65;;
74223;SDS011;62585;49.706;18.216;2023-09-08T08:06:14;12.10;;;7.70;;
74223;SDS011;62585;49.706;18.216;2023-09-08T08:08:40;13.52;;;8.18;;
74223;SDS011;62585;49.706;18.216;2023-09-08T08:11:10;14.05;;;8.32;;
74223;SDS011;62585;49.706;18.216;2023-09-08T08:13:40;11.73;;;7.90;;
74223;SDS011;62585;49.706;18.216;2023-09-08T08:16:06;14.20;;;7.82;;
74223;SDS011;62585;49.706;18.216;2023-09-08T08:18:33;10.90;;;8.05;;
74223;SDS011;62585;49.706;18.216;2023-09-08T08:20:58;10.15;;;6.90;;
74223;SDS011;62585;49.706;18.216;2023-09-08T08:23:26;10.60;;;7.30;;
74223;SDS011;62585;49.706;18.216;2023-09-08T08:25:51;13.05;;;8.38;;
74223;SDS011;62585;49.706;18.216;2023-09-08T08:28:17;11.63;;;7.30;;
74223;SDS011;62585;49.706;18.216;2023-09-08T08:30:43;11.15;;;7.40;;
74223;SDS011;62585;49.706;18.216;2023-09-08T08:33:09;13.15;;;7.57;;
74223;SDS011;62585;49.706;18.216;2023-09-08T08:35:36;10.73;;;6.82;;
74223;SDS011;62585;49.706;18.216;2023-09-08T08:38:02;10.63;;;6.70;;
74223;SDS011;62585;49.706;18.216;2023-09-08T08:40:27;9.50;;;5.97;;
74223;SDS011;62585;49.706;18.216;2023-09-08T08:42:57;11.02;;;7.07;;
74223;SDS011;62585;49.706;18.216;2023-09-08T08:45:23;12.15;;;6.40;;
74223;SDS011;62585;49.706;18.216;2023-09-08T08:47:53;10.10;;;6.40;;
74223;SDS011;62585;49.706;18.216;2023-09-08T08:50:19;10.15;;;6.30;;
74223;SDS011;62585;49.706;18.216;2023-09-08T08:52:45;7.28;;;5.80;;
74223;SDS011;62585;49.706;18.216;2023-09-08T08:55:12;9.35;;;5.68;;
74223;SDS011;62585;49.706;18.216;2023-09-08T08:57:41;9.07;;;5.93;;
74223;SDS011;62585;49.706;18.216;2023-09-08T09:02:37;10.05;;;5.30;;
74223;SDS011;62585;49.706;18.216;2023-09-08T09:05:05;8.90;;;5.22;;
74223;SDS011;62585;49.706;18.216;2023-09-08T09:07:32;7.07;;;4.60;;
74223;SDS011;62585;49.706;18.216;2023-09-08T09:09:58;7.00;;;4.65;;
74223;SDS011;62585;49.706;18.216;2023-09-08T09:12:24;6.78;;;4.50;;
74223;SDS011;62585;49.706;18.216;2023-09-08T09:14:53;9.25;;;5.57;;
74223;SDS011;62585;49.706;18.216;2023-09-08T09:17:19;6.72;;;4.85;;
74223;SDS011;62585;49.706;18.216;2023-09-08T09:19:45;6.28;;;4.57;;
74223;SDS011;62585;49.706;18.216;2023-09-08T09:22:11;6.78;;;4.05;;
74223;SDS011;62585;49.706;18.216;2023-09-08T09:24:37;7.15;;;4.78;;
74223;SDS011;62585;49.706;18.216;2023-09-08T09:27:09;8.00;;;5.30;;
74223;SDS011;62585;49.706;18.216;2023-09-08T09:29:46;6.93;;;4.65;;
74223;SDS011;62585;49.706;18.216;2023-09-08T09:32:13;8.30;;;4.80;;
74223;SDS011;62585;49.706;18.216;2023-09-08T09:34:49;7.32;;;4.68;;
74223;SDS011;62585;49.706;18.216;2023-09-08T09:37:16;7.95;;;4.72;;
74223;SDS011;62585;49.706;18.216;2023-09-08T09:39:42;8.35;;;5.10;;
74223;SDS011;62585;49.706;18.216;2023-09-08T09:42:08;8.93;;;4.75;;
74223;SDS011;62585;49.706;18.216;2023-09-08T09:44:34;7.88;;;4.60;;
74223;SDS011;62585;49.706;18.216;2023-09-08T09:49:26;6.22;;;4.25;;
74223;SDS011;62585;49.706;18.216;2023-09-08T09:51:57;6.57;;;3.90;;
74223;SDS011;62585;49.706;18.216;2023-09-08T09:54:24;6.03;;;3.85;;
74223;SDS011;62585;49.706;18.216;2023-09-08T09:56:50;5.93;;;4.15;;
74223;SDS011;62585;49.706;18.216;2023-09-08T09:59:17;6.45;;;4.20;;
74223;SDS011;62585;49.706;18.216;2023-09-08T10:01:43;7.55;;;4.40;;
74223;SDS011;62585;49.706;18.216;2023-09-08T10:04:09;7.00;;;4.15;;
74223;SDS011;62585;49.706;18.216;2023-09-08T10:06:37;7.25;;;3.90;;
74223;SDS011;62585;49.706;18.216;2023-09-08T10:09:05;6.07;;;4.20;;
74223;SDS011;62585;49.706;18.216;2023-09-08T10:11:35;6.68;;;4.18;;
74223;SDS011;62585;49.706;18.216;2023-09-08T10:14:17;4.75;;;3.53;;
74223;SDS011;62585;49.706;18.216;2023-09-08T10:16:45;8.07;;;4.50;;
74223;SDS011;62585;49.706;18.216;2023-09-08T10:19:15;7.28;;;4.00;;
74223;SDS011;62585;49.706;18.216;2023-09-08T10:21:45;9.45;;;4.20;;
74223;SDS011;62585;49.706;18.216;2023-09-08T10:24:15;6.57;;;4.10;;
74223;SDS011;62585;49.706;18.216;2023-09-08T10:27:21;6.70;;;3.92;;
74223;SDS011;62585;49.706;18.216;2023-09-08T10:29:40;7.45;;;4.47;;
74223;SDS011;62585;49.706;18.216;2023-09-08T10:32:09;6.53;;;4.10;;
74223;SDS011;62585;49.706;18.216;2023-09-08T10:34:36;5.40;;;3.78;;
74223;SDS011;62585;49.706;18.216;2023-09-08T10:37:02;6.00;;;4.07;;
74223;SDS011;62585;49.706;18.216;2023-09-08T10:44:59;7.40;;;4.50;;
74223;SDS011;62585;49.706;18.216;2023-09-08T10:50:17;6.85;;;4.10;;
74223;SDS011;62585;49.706;18.216;2023-09-08T10:53:12;7.40;;;4.35;;
74223;SDS011;62585;49.706;18.216;2023-09-08T10:55:48;7.75;;;4.00;;
74223;SDS011;62585;49.706;18.216;2023-09-08T10:58:21;6.43;;;4.07;;
74223;SDS011;62585;49.706;18.216;2023-09-08T11:01:04;6.57;;;4.28;;
74223;SDS011;62585;49.706;18.216;2023-09-08T11:06:03;7.20;;;4.22;;
74223;SDS011;62585;49.706;18.216;2023-09-08T11:08:30;5.72;;;3.90;;
74223;SDS011;62585;49.706;18.216;2023-09-08T11:10:56;5.57;;;3.97;;
74223;SDS011;62585;49.706;18.216;2023-09-08T11:13:22;5.40;;;3.90;;
74223;SDS011;62585;49.706;18.216;2023-09-08T11:15:50;5.90;;;3.50;;
74223;SDS011;62585;49.706;18.216;2023-09-08T11:18:25;6.07;;;4.03;;
74223;SDS011;62585;49.706;18.216;2023-09-08T11:20:54;10.40;;;4.55;;
74223;SDS011;62585;49.706;18.216;2023-09-08T11:23:21;6.50;;;4.35;;
74223;SDS011;62585;49.706;18.216;2023-09-08T11:25:48;7.20;;;4.15;;
74223;SDS011;62585;49.706;18.216;2023-09-08T11:28:15;6.53;;;4.10;;
74223;SDS011;62585;49.706;18.216;2023-09-08T11:30:42;5.63;;;4.30;;
74223;SDS011;62585;49.706;18.216;2023-09-08T11:33:14;6.60;;;4.03;;
74223;SDS011;62585;49.706;18.216;2023-09-08T11:35:41;6.35;;;3.90;;
74223;SDS011;62585;49.706;18.216;2023-09-08T11:38:10;4.78;;;3.92;;
74223;SDS011;62585;49.706;18.216;2023-09-08T11:40:36;6.35;;;4.15;;
74223;SDS011;62585;49.706;18.216;2023-09-08T11:43:02;8.93;;;4.03;;
74223;SDS011;62585;49.706;18.216;2023-09-08T11:45:29;5.93;;;4.22;;
74223;SDS011;62585;49.706;18.216;2023-09-08T11:47:56;6.00;;;4.00;;
74223;SDS011;62585;49.706;18.216;2023-09-08T11:50:22;6.22;;;4.00;;
74223;SDS011;62585;49.706;18.216;2023-09-08T11:52:50;5.28;;;3.80;;
74223;SDS011;62585;49.706;18.216;2023-09-08T11:55:17;7.95;;;4.28;;
74223;SDS011;62585;49.706;18.216;2023-09-08T11:58:02;5.55;;;3.50;;
74223;SDS011;62585;49.706;18.216;2023-09-08T12:02:55;6.25;;;3.90;;
74223;SDS011;62585;49.706;18.216;2023-09-08T12:05:25;5.57;;;4.10;;
74223;SDS011;62585;49.706;18.216;2023-09-08T12:07:53;7.85;;;4.60;;
74223;SDS011;62585;49.706;18.216;2023-09-08T12:10:20;8.30;;;4.68;;
74223;SDS011;62585;49.706;18.216;2023-09-08T12:12:50;6.85;;;4.18;;
74223;SDS011;62585;49.706;18.216;2023-09-08T12:15:39;7.10;;;4.38;;
74223;SDS011;62585;49.706;18.216;2023-09-08T12:20:33;6.55;;;4.22;;
74223;SDS011;62585;49.706;18.216;2023-09-08T12:23:02;6.45;;;4.30;;
74223;SDS011;62585;49.706;18.216;2023-09-08T12:25:29;5.55;;;4.15;;
74223;SDS011;62585;49.706;18.216;2023-09-08T12:27:59;5.75;;;4.43;;
74223;SDS011;62585;49.706;18.216;2023-09-08T12:30:26;5.18;;;4.20;;
74223;SDS011;62585;49.706;18.216;2023-09-08T12:32:58;4.97;;;4.10;;
74223;SDS011;62585;49.706;18.216;2023-09-08T12:35:26;5.18;;;4.10;;
74223;SDS011;62585;49.706;18.216;2023-09-08T12:40:25;8.45;;;4.80;;
74223;SDS011;62585;49.706;18.216;2023-09-08T12:42:52;6.50;;;3.80;;
74223;SDS011;62585;49.706;18.216;2023-09-08T12:45:20;5.38;;;4.00;;
74223;SDS011;62585;49.706;18.216;2023-09-08T12:47:47;5.60;;;3.90;;
74223;SDS011;62585;49.706;18.216;2023-09-08T12:50:13;5.70;;;4.50;;
74223;SDS011;62585;49.706;18.216;2023-09-08T12:52:39;5.60;;;4.10;;
74223;SDS011;62585;49.706;18.216;2023-09-08T12:55:06;6.78;;;4.35;;
74223;SDS011;62585;49.706;18.216;2023-09-08T12:57:33;6.68;;;4.68;;
74223;SDS011;62585;49.706;18.216;2023-09-08T12:59:59;5.72;;;4.15;;
74223;SDS011;62585;49.706;18.216;2023-09-08T13:02:25;6.68;;;4.65;;
74223;SDS011;62585;49.706;18.216;2023-09-08T13:04:51;4.72;;;3.65;;
74223;SDS011;62585;49.706;18.216;2023-09-08T13:07:17;5.72;;;4.18;;
74223;SDS011;62585;49.706;18.216;2023-09-08T13:09:44;5.50;;;4.20;;
74223;SDS011;62585;49.706;18.216;2023-09-08T13:14:38;5.88;;;4.15;;
74223;SDS011;62585;49.706;18.216;2023-09-08T13:17:04;5.72;;;4.03;;
74223;SDS011;62585;49.706;18.216;2023-09-08T13:19:31;6.25;;;4.03;;
74223;SDS011;62585;49.706;18.216;2023-09-08T13:21:58;5.60;;;4.38;;
74223;SDS011;62585;49.706;18.216;2023-09-08T13:24:24;6.55;;;4.82;;
74223;SDS011;62585;49.706;18.216;2023-09-08T13:26:50;6.70;;;4.45;;
74223;SDS011;62585;49.706;18.216;2023-09-08T13:29:16;6.22;;;4.00;;
74223;SDS011;62585;49.706;18.216;2023-09-08T13:31:42;5.20;;;4.10;;
74223;SDS011;62585;49.706;18.216;2023-09-08T13:34:08;5.55;;;3.85;;
74223;SDS011;62585;49.706;18.216;2023-09-08T13:36:34;6.57;;;3.97;;
74223;SDS011;62585;49.706;18.216;2023-09-08T13:38:59;5.00;;;3.85;;
74223;SDS011;62585;49.706;18.216;2023-09-08T13:41:43;5.78;;;4.10;;
74223;SDS011;62585;49.706;18.216;2023-09-08T13:44:17;4.72;;;3.80;;
74223;SDS011;62585;49.706;18.216;2023-09-08T13:46:45;6.40;;;4.03;;
74223;SDS011;62585;49.706;18.216;2023-09-08T13:49:12;4.97;;;4.03;;
74223;SDS011;62585;49.706;18.216;2023-09-08T13:51:38;6.28;;;4.10;;
74223;SDS011;62585;49.706;18.216;2023-09-08T13:54:04;5.80;;;4.20;;
74223;SDS011;62585;49.706;18.216;2023-09-08T13:56:30;5.78;;;4.55;;
74223;SDS011;62585;49.706;18.216;2023-09-08T13:58:55;7.22;;;4.15;;
74223;SDS011;62585;49.706;18.216;2023-09-08T14:01:21;6.13;;;4.32;;
74223;SDS011;62585;49.706;18.216;2023-09-08T14:03:47;5.20;;;4.15;;
74223;SDS011;62585;49.706;18.216;2023-09-08T14:06:20;6.00;;;4.28;;
74223;SDS011;62585;49.706;18.216;2023-09-08T14:08:46;5.65;;;4.50;;
74223;SDS011;62585;49.706;18.216;2023-09-08T14:13:47;5.70;;;4.22;;
74223;SDS011;62585;49.706;18.216;2023-09-08T14:16:13;5.32;;;3.88;;
74223;SDS011;62585;49.706;18.216;2023-09-08T14:18:39;5.65;;;4.70;;
74223;SDS011;62585;49.706;18.216;2023-09-08T14:21:06;5.47;;;4.20;;
74223;SDS011;62585;49.706;18.216;2023-09-08T14:23:32;6.28;;;4.57;;
74223;SDS011;62585;49.706;18.216;2023-09-08T14:26:03;6.35;;;4.40;;
74223;SDS011;62585;49.706;18.216;2023-09-08T14:28:29;5.95;;;4.32;;
74223;SDS011;62585;49.706;18.216;2023-09-08T14:30:58;7.80;;;4.47;;
74223;SDS011;62585;49.706;18.216;2023-09-08T14:35:50;8.50;;;4.70;;
74223;SDS011;62585;49.706;18.216;2023-09-08T14:38:17;5.43;;;4.70;;
74223;SDS011;62585;49.706;18.216;2023-09-08T14:40:44;6.05;;;4.90;;
74223;SDS011;62585;49.706;18.216;2023-09-08T14:43:10;5.25;;;4.18;;
74223;SDS011;62585;49.706;18.216;2023-09-08T14:45:36;6.78;;;4.90;;
74223;SDS011;62585;49.706;18.216;2023-09-08T14:48:02;5.50;;;4.47;;
74223;SDS011;62585;49.706;18.216;2023-09-08T14:50:28;8.52;;;5.78;;
74223;SDS011;62585;49.706;18.216;2023-09-08T14:52:54;8.25;;;5.10;;
74223;SDS011;62585;49.706;18.216;2023-09-08T14:55:20;9.32;;;5.05;;
74223;SDS011;62585;49.706;18.216;2023-09-08T14:57:45;6.43;;;4.47;;
74223;SDS011;62585;49.706;18.216;2023-09-08T15:00:12;6.85;;;4.50;;
74223;SDS011;62585;49.706;18.216;2023-09-08T15:02:38;7.07;;;4.68;;
74223;SDS011;62585;49.706;18.216;2023-09-08T15:05:04;7.07;;;4.45;;
74223;SDS011;62585;49.706;18.216;2023-09-08T15:07:30;5.75;;;4.30;;
74223;SDS011;62585;49.706;18.216;2023-09-08T15:09:56;7.15;;;5.03;;
74223;SDS011;62585;49.706;18.216;2023-09-08T15:12:22;7.65;;;4.45;;